sensor_id;sensor_type;location;lat;lon;timestamp;temperature;humidity
64032;DHT22;50278;47.796;11.968;2023-04-03T00:01:23;1.70;118.99
64032;DHT22;50278;47.796;11.968;2023-04-03T00:03:49;1.57;118.99
64032;DHT22;50278;47.796;11.968;2023-04-03T00:06:15;1.62;118.99
64032;DHT22;50278;47.796;11.968;2023-04-03T00:08:41;1.69;118.99
64032;DHT22;50278;47.796;11.968;2023-04-03T00:11:07;1.60;118.99
64032;DHT22;50278;47.796;11.968;2023-04-03T00:13:33;1.77;118.99
64032;DHT22;50278;47.796;11.968;2023-04-03T00:15:59;1.80;118.99
64032;DHT22;50278;47.796;11.968;2023-04-03T00:18:25;1.77;118.99
64032;DHT22;50278;47.796;11.968;2023-04-03T00:20:51;1.70;118.99
64032;DHT22;50278;47.796;11.968;2023-04-03T00:23:16;1.46;118.99
64032;DHT22;50278;47.796;11.968;2023-04-03T00:25:42;1.67;118.99
64032;DHT22;50278;47.796;11.968;2023-04-03T00:28:08;1.91;118.99
64032;DHT22;50278;47.796;11.968;2023-04-03T00:30:34;1.87;118.99
64032;DHT22;50278;47.796;11.968;2023-04-03T00:33:00;1.84;118.99
64032;DHT22;50278;47.796;11.968;2023-04-03T00:35:26;1.90;118.99
64032;DHT22;50278;47.796;11.968;2023-04-03T00:37:52;1.76;118.99
64032;DHT22;50278;47.796;11.968;2023-04-03T00:40:18;1.78;118.99
64032;DHT22;50278;47.796;11.968;2023-04-03T00:42:46;1.83;118.99
64032;DHT22;50278;47.796;11.968;2023-04-03T00:45:29;1.90;118.99
64032;DHT22;50278;47.796;11.968;2023-04-03T00:47:55;1.82;118.99
64032;DHT22;50278;47.796;11.968;2023-04-03T00:50:21;1.87;118.99
64032;DHT22;50278;47.796;11.968;2023-04-03T00:52:47;1.75;118.99
64032;DHT22;50278;47.796;11.968;2023-04-03T00:55:14;1.70;118.99
64032;DHT22;50278;47.796;11.968;2023-04-03T00:57:42;1.71;118.99
64032;DHT22;50278;47.796;11.968;2023-04-03T01:00:13;1.72;118.99
64032;DHT22;50278;47.796;11.968;2023-04-03T01:02:40;1.56;118.99
64032;DHT22;50278;47.796;11.968;2023-04-03T01:05:08;1.76;118.99
64032;DHT22;50278;47.796;11.968;2023-04-03T01:07:33;1.81;118.99
64032;DHT22;50278;47.796;11.968;2023-04-03T01:10:06;1.73;118.99
64032;DHT22;50278;47.796;11.968;2023-04-03T01:12:35;1.71;118.99
64032;DHT22;50278;47.796;11.968;2023-04-03T01:15:08;1.86;118.99
64032;DHT22;50278;47.796;11.968;2023-04-03T01:20:34;1.73;118.99
64032;DHT22;50278;47.796;11.968;2023-04-03T01:25:45;1.82;118.99
64032;DHT22;50278;47.796;11.968;2023-04-03T01:28:18;1.81;118.99
64032;DHT22;50278;47.796;11.968;2023-04-03T01:33:29;1.78;118.99
64032;DHT22;50278;47.796;11.968;2023-04-03T01:35:55;1.77;118.99
64032;DHT22;50278;47.796;11.968;2023-04-03T01:38:21;1.69;118.99
64032;DHT22;50278;47.796;11.968;2023-04-03T01:40:46;1.78;118.99
64032;DHT22;50278;47.796;11.968;2023-04-03T01:43:12;1.84;118.99
64032;DHT22;50278;47.796;11.968;2023-04-03T01:45:37;1.79;118.99
64032;DHT22;50278;47.796;11.968;2023-04-03T01:48:03;1.69;118.99
64032;DHT22;50278;47.796;11.968;2023-04-03T01:50:29;1.73;118.99
64032;DHT22;50278;47.796;11.968;2023-04-03T01:52:55;1.77;118.99
64032;DHT22;50278;47.796;11.968;2023-04-03T01:55:21;1.68;118.99
64032;DHT22;50278;47.796;11.968;2023-04-03T01:57:46;1.75;118.99
64032;DHT22;50278;47.796;11.968;2023-04-03T02:00:12;1.67;118.99
64032;DHT22;50278;47.796;11.968;2023-04-03T02:02:38;1.42;118.99
64032;DHT22;50278;47.796;11.968;2023-04-03T02:05:04;1.46;118.99
64032;DHT22;50278;47.796;11.968;2023-04-03T02:07:30;1.60;118.99
64032;DHT22;50278;47.796;11.968;2023-04-03T02:09:55;1.65;118.99
64032;DHT22;50278;47.796;11.968;2023-04-03T02:12:22;1.54;118.99
64032;DHT22;50278;47.796;11.968;2023-04-03T02:14:47;1.69;118.99
64032;DHT22;50278;47.796;11.968;2023-04-03T02:17:13;1.60;118.99
64032;DHT22;50278;47.796;11.968;2023-04-03T02:19:38;1.55;118.99
64032;DHT22;50278;47.796;11.968;2023-04-03T02:22:04;1.62;118.99
64032;DHT22;50278;47.796;11.968;2023-04-03T02:24:31;1.70;118.99
64032;DHT22;50278;47.796;11.968;2023-04-03T02:26:58;1.64;118.99
64032;DHT22;50278;47.796;11.968;2023-04-03T02:29:24;1.49;118.99
64032;DHT22;50278;47.796;11.968;2023-04-03T02:31:50;1.64;118.99
64032;DHT22;50278;47.796;11.968;2023-04-03T02:34:17;1.62;118.99
64032;DHT22;50278;47.796;11.968;2023-04-03T02:36:43;1.55;118.99
64032;DHT22;50278;47.796;11.968;2023-04-03T02:39:10;1.60;118.99
64032;DHT22;50278;47.796;11.968;2023-04-03T02:41:36;1.48;118.99
64032;DHT22;50278;47.796;11.968;2023-04-03T02:44:09;1.62;118.99
64032;DHT22;50278;47.796;11.968;2023-04-03T02:46:35;1.54;118.99
64032;DHT22;50278;47.796;11.968;2023-04-03T02:49:02;1.45;118.99
64032;DHT22;50278;47.796;11.968;2023-04-03T02:51:28;1.64;118.99
64032;DHT22;50278;47.796;11.968;2023-04-03T02:53:53;1.43;118.99
64032;DHT22;50278;47.796;11.968;2023-04-03T02:56:23;1.38;118.99
64032;DHT22;50278;47.796;11.968;2023-04-03T02:58:48;1.26;118.99
64032;DHT22;50278;47.796;11.968;2023-04-03T03:01:16;1.23;118.99
64032;DHT22;50278;47.796;11.968;2023-04-03T03:03:41;0.88;118.99
64032;DHT22;50278;47.796;11.968;2023-04-03T03:06:12;1.31;118.99
64032;DHT22;50278;47.796;11.968;2023-04-03T03:08:39;1.18;118.99
64032;DHT22;50278;47.796;11.968;2023-04-03T03:11:05;1.35;118.99
64032;DHT22;50278;47.796;11.968;2023-04-03T03:13:32;1.18;118.99
64032;DHT22;50278;47.796;11.968;2023-04-03T03:15:58;1.47;118.99
64032;DHT22;50278;47.796;11.968;2023-04-03T03:18:23;1.27;118.99
64032;DHT22;50278;47.796;11.968;2023-04-03T03:20:53;1.35;118.99
64032;DHT22;50278;47.796;11.968;2023-04-03T03:23:19;1.29;118.99
64032;DHT22;50278;47.796;11.968;2023-04-03T03:25:45;1.14;118.99
64032;DHT22;50278;47.796;11.968;2023-04-03T03:28:10;1.37;118.99
64032;DHT22;50278;47.796;11.968;2023-04-03T03:30:37;1.36;118.99
64032;DHT22;50278;47.796;11.968;2023-04-03T03:33:03;1.25;118.99
64032;DHT22;50278;47.796;11.968;2023-04-03T03:35:29;1.42;118.99
64032;DHT22;50278;47.796;11.968;2023-04-03T03:37:54;1.40;118.99
64032;DHT22;50278;47.796;11.968;2023-04-03T03:40:20;1.37;118.99
64032;DHT22;50278;47.796;11.968;2023-04-03T03:42:45;1.41;118.99
64032;DHT22;50278;47.796;11.968;2023-04-03T03:45:11;1.46;118.99
64032;DHT22;50278;47.796;11.968;2023-04-03T03:47:37;1.46;118.99
64032;DHT22;50278;47.796;11.968;2023-04-03T03:50:03;1.48;118.99
64032;DHT22;50278;47.796;11.968;2023-04-03T03:52:29;1.40;118.99
64032;DHT22;50278;47.796;11.968;2023-04-03T03:54:56;1.42;118.99
64032;DHT22;50278;47.796;11.968;2023-04-03T03:57:22;1.35;118.99
64032;DHT22;50278;47.796;11.968;2023-04-03T03:59:48;1.51;118.99
64032;DHT22;50278;47.796;11.968;2023-04-03T04:02:16;1.51;118.99
64032;DHT22;50278;47.796;11.968;2023-04-03T04:04:42;1.48;118.99
64032;DHT22;50278;47.796;11.968;2023-04-03T04:07:08;1.37;118.99
64032;DHT22;50278;47.796;11.968;2023-04-03T04:09:34;1.23;118.99
64032;DHT22;50278;47.796;11.968;2023-04-03T04:12:00;1.38;118.99
64032;DHT22;50278;47.796;11.968;2023-04-03T04:14:26;1.31;118.99
64032;DHT22;50278;47.796;11.968;2023-04-03T04:16:52;1.37;118.99
64032;DHT22;50278;47.796;11.968;2023-04-03T04:19:23;0.96;118.99
64032;DHT22;50278;47.796;11.968;2023-04-03T04:21:48;1.10;118.99
64032;DHT22;50278;47.796;11.968;2023-04-03T04:24:14;1.32;118.99
64032;DHT22;50278;47.796;11.968;2023-04-03T04:26:40;1.21;118.99
64032;DHT22;50278;47.796;11.968;2023-04-03T04:29:09;1.21;118.99
64032;DHT22;50278;47.796;11.968;2023-04-03T04:31:35;1.22;118.99
64032;DHT22;50278;47.796;11.968;2023-04-03T04:34:01;1.20;118.99
64032;DHT22;50278;47.796;11.968;2023-04-03T04:36:27;1.26;118.99
64032;DHT22;50278;47.796;11.968;2023-04-03T04:38:53;1.09;118.99
64032;DHT22;50278;47.796;11.968;2023-04-03T04:41:21;1.18;118.99
64032;DHT22;50278;47.796;11.968;2023-04-03T04:43:49;1.21;118.99
64032;DHT22;50278;47.796;11.968;2023-04-03T04:46:14;1.25;118.99
64032;DHT22;50278;47.796;11.968;2023-04-03T04:48:45;1.29;118.99
64032;DHT22;50278;47.796;11.968;2023-04-03T04:51:12;1.38;118.99
64032;DHT22;50278;47.796;11.968;2023-04-03T04:53:38;1.37;118.99
64032;DHT22;50278;47.796;11.968;2023-04-03T04:56:04;1.26;118.99
64032;DHT22;50278;47.796;11.968;2023-04-03T04:58:32;1.34;118.99
64032;DHT22;50278;47.796;11.968;2023-04-03T05:01:01;1.37;118.99
64032;DHT22;50278;47.796;11.968;2023-04-03T05:03:29;1.47;118.99
64032;DHT22;50278;47.796;11.968;2023-04-03T05:05:54;1.54;118.99
64032;DHT22;50278;47.796;11.968;2023-04-03T05:08:20;1.48;118.99
64032;DHT22;50278;47.796;11.968;2023-04-03T05:10:46;1.50;118.99
64032;DHT22;50278;47.796;11.968;2023-04-03T05:13:13;1.54;118.99
64032;DHT22;50278;47.796;11.968;2023-04-03T05:15:38;1.50;118.99
64032;DHT22;50278;47.796;11.968;2023-04-03T05:18:04;1.42;118.99
64032;DHT22;50278;47.796;11.968;2023-04-03T05:20:31;1.41;118.99
64032;DHT22;50278;47.796;11.968;2023-04-03T05:22:57;1.28;118.99
64032;DHT22;50278;47.796;11.968;2023-04-03T05:25:23;1.42;118.99
64032;DHT22;50278;47.796;11.968;2023-04-03T05:27:49;1.43;118.99
64032;DHT22;50278;47.796;11.968;2023-04-03T05:30:16;1.31;118.99
64032;DHT22;50278;47.796;11.968;2023-04-03T05:32:42;1.18;118.99
64032;DHT22;50278;47.796;11.968;2023-04-03T05:35:17;1.24;118.99
64032;DHT22;50278;47.796;11.968;2023-04-03T05:37:45;1.42;118.99
64032;DHT22;50278;47.796;11.968;2023-04-03T05:40:11;1.50;118.99
64032;DHT22;50278;47.796;11.968;2023-04-03T05:42:40;1.60;118.99
64032;DHT22;50278;47.796;11.968;2023-04-03T05:45:06;1.51;118.99
64032;DHT22;50278;47.796;11.968;2023-04-03T05:47:32;1.49;118.99
64032;DHT22;50278;47.796;11.968;2023-04-03T05:49:58;1.46;118.99
64032;DHT22;50278;47.796;11.968;2023-04-03T05:52:30;1.63;118.99
64032;DHT22;50278;47.796;11.968;2023-04-03T05:54:57;1.45;118.99
64032;DHT22;50278;47.796;11.968;2023-04-03T05:57:25;1.50;118.99
64032;DHT22;50278;47.796;11.968;2023-04-03T05:59:51;1.57;118.99
64032;DHT22;50278;47.796;11.968;2023-04-03T06:02:20;1.61;118.99
64032;DHT22;50278;47.796;11.968;2023-04-03T06:04:47;1.47;118.99
64032;DHT22;50278;47.796;11.968;2023-04-03T06:07:17;1.49;118.99
64032;DHT22;50278;47.796;11.968;2023-04-03T06:09:49;1.51;118.99
64032;DHT22;50278;47.796;11.968;2023-04-03T06:12:16;1.29;118.99
64032;DHT22;50278;47.796;11.968;2023-04-03T06:14:43;1.49;118.99
64032;DHT22;50278;47.796;11.968;2023-04-03T06:17:09;-0.53;118.99
64032;DHT22;50278;47.796;11.968;2023-04-03T06:19:35;0.33;118.99
64032;DHT22;50278;47.796;11.968;2023-04-03T06:22:01;1.54;118.99
64032;DHT22;50278;47.796;11.968;2023-04-03T06:24:29;1.64;118.99
64032;DHT22;50278;47.796;11.968;2023-04-03T06:26:56;1.39;118.99
64032;DHT22;50278;47.796;11.968;2023-04-03T06:29:22;1.34;118.99
64032;DHT22;50278;47.796;11.968;2023-04-03T06:31:48;1.49;118.99
64032;DHT22;50278;47.796;11.968;2023-04-03T06:34:14;1.32;118.99
64032;DHT22;50278;47.796;11.968;2023-04-03T06:36:41;1.60;118.99
64032;DHT22;50278;47.796;11.968;2023-04-03T06:39:06;1.49;118.99
64032;DHT22;50278;47.796;11.968;2023-04-03T06:41:32;1.25;118.99
64032;DHT22;50278;47.796;11.968;2023-04-03T06:43:58;1.49;118.99
64032;DHT22;50278;47.796;11.968;2023-04-03T06:46:25;0.50;118.99
64032;DHT22;50278;47.796;11.968;2023-04-03T06:48:51;1.41;118.99
64032;DHT22;50278;47.796;11.968;2023-04-03T06:53:45;1.80;118.99
64032;DHT22;50278;47.796;11.968;2023-04-03T06:56:11;1.85;118.99
64032;DHT22;50278;47.796;11.968;2023-04-03T06:58:37;1.86;118.99
64032;DHT22;50278;47.796;11.968;2023-04-03T07:01:02;1.97;118.99
64032;DHT22;50278;47.796;11.968;2023-04-03T07:03:28;2.15;118.99
64032;DHT22;50278;47.796;11.968;2023-04-03T07:05:54;1.07;118.99
64032;DHT22;50278;47.796;11.968;2023-04-03T07:08:19;2.21;118.99
64032;DHT22;50278;47.796;11.968;2023-04-03T07:10:48;2.07;118.99
64032;DHT22;50278;47.796;11.968;2023-04-03T07:13:14;1.92;118.99
64032;DHT22;50278;47.796;11.968;2023-04-03T07:15:40;1.23;118.99
64032;DHT22;50278;47.796;11.968;2023-04-03T07:18:06;2.01;118.99
64032;DHT22;50278;47.796;11.968;2023-04-03T07:20:31;2.25;118.99
64032;DHT22;50278;47.796;11.968;2023-04-03T07:22:57;2.24;118.99
64032;DHT22;50278;47.796;11.968;2023-04-03T07:25:23;2.24;118.99
64032;DHT22;50278;47.796;11.968;2023-04-03T07:27:48;2.31;118.99
64032;DHT22;50278;47.796;11.968;2023-04-03T07:30:14;1.92;118.99
64032;DHT22;50278;47.796;11.968;2023-04-03T07:32:40;2.22;118.99
64032;DHT22;50278;47.796;11.968;2023-04-03T07:35:06;1.93;118.99
64032;DHT22;50278;47.796;11.968;2023-04-03T07:37:32;2.06;118.99
64032;DHT22;50278;47.796;11.968;2023-04-03T07:39:58;2.45;118.99
64032;DHT22;50278;47.796;11.968;2023-04-03T07:42:25;1.83;118.99
64032;DHT22;50278;47.796;11.968;2023-04-03T07:44:53;2.26;118.99
64032;DHT22;50278;47.796;11.968;2023-04-03T07:47:18;1.98;118.99
64032;DHT22;50278;47.796;11.968;2023-04-03T07:49:45;3.11;118.99
64032;DHT22;50278;47.796;11.968;2023-04-03T07:52:11;2.81;118.99
64032;DHT22;50278;47.796;11.968;2023-04-03T07:54:37;2.52;118.99
64032;DHT22;50278;47.796;11.968;2023-04-03T07:57:02;2.24;118.99
64032;DHT22;50278;47.796;11.968;2023-04-03T07:59:28;2.24;118.99
64032;DHT22;50278;47.796;11.968;2023-04-03T08:01:53;2.85;118.99
64032;DHT22;50278;47.796;11.968;2023-04-03T08:04:19;2.93;118.99
64032;DHT22;50278;47.796;11.968;2023-04-03T08:06:44;2.54;118.99
64032;DHT22;50278;47.796;11.968;2023-04-03T08:09:10;2.96;118.99
64032;DHT22;50278;47.796;11.968;2023-04-03T08:11:39;2.81;118.99
64032;DHT22;50278;47.796;11.968;2023-04-03T08:14:04;2.42;118.99
64032;DHT22;50278;47.796;11.968;2023-04-03T08:16:30;2.79;118.99
64032;DHT22;50278;47.796;11.968;2023-04-03T08:18:55;2.94;118.99
64032;DHT22;50278;47.796;11.968;2023-04-03T08:21:21;2.90;118.99
64032;DHT22;50278;47.796;11.968;2023-04-03T08:23:49;2.94;118.99
64032;DHT22;50278;47.796;11.968;2023-04-03T08:26:19;3.00;118.99
64032;DHT22;50278;47.796;11.968;2023-04-03T08:28:46;3.14;118.99
64032;DHT22;50278;47.796;11.968;2023-04-03T08:31:16;3.23;118.99
64032;DHT22;50278;47.796;11.968;2023-04-03T08:33:44;3.35;118.99
64032;DHT22;50278;47.796;11.968;2023-04-03T08:36:21;3.56;118.99
64032;DHT22;50278;47.796;11.968;2023-04-03T08:38:48;3.27;118.99
64032;DHT22;50278;47.796;11.968;2023-04-03T08:49:39;3.55;118.99
64032;DHT22;50278;47.796;11.968;2023-04-03T08:52:11;3.70;118.99
64032;DHT22;50278;47.796;11.968;2023-04-03T08:57:12;3.62;118.99
64032;DHT22;50278;47.796;11.968;2023-04-03T08:59:38;3.84;118.99
64032;DHT22;50278;47.796;11.968;2023-04-03T09:04:49;3.79;118.99
64032;DHT22;50278;47.796;11.968;2023-04-03T09:07:33;3.98;118.99
64032;DHT22;50278;47.796;11.968;2023-04-03T09:10:00;4.04;118.99
64032;DHT22;50278;47.796;11.968;2023-04-03T09:12:33;3.98;118.99
64032;DHT22;50278;47.796;11.968;2023-04-03T09:15:15;4.19;118.99
64032;DHT22;50278;47.796;11.968;2023-04-03T09:20:21;4.39;118.99
64032;DHT22;50278;47.796;11.968;2023-04-03T09:22:51;4.02;118.99
64032;DHT22;50278;47.796;11.968;2023-04-03T09:25:34;4.28;118.99
64032;DHT22;50278;47.796;11.968;2023-04-03T09:28:01;4.33;118.99
64032;DHT22;50278;47.796;11.968;2023-04-03T09:30:27;4.35;118.99
64032;DHT22;50278;47.796;11.968;2023-04-03T09:32:55;4.34;118.99
64032;DHT22;50278;47.796;11.968;2023-04-03T09:35:30;4.42;118.99
64032;DHT22;50278;47.796;11.968;2023-04-03T09:41:06;4.54;118.99
64032;DHT22;50278;47.796;11.968;2023-04-03T09:43:33;4.67;118.99
64032;DHT22;50278;47.796;11.968;2023-04-03T09:46:30;4.05;118.99
64032;DHT22;50278;47.796;11.968;2023-04-03T09:49:02;0.67;118.99
64032;DHT22;50278;47.796;11.968;2023-04-03T09:51:29;0.06;118.99
64032;DHT22;50278;47.796;11.968;2023-04-03T09:53:55;0.25;118.99
64032;DHT22;50278;47.796;11.968;2023-04-03T09:56:29;0.17;118.99
64032;DHT22;50278;47.796;11.968;2023-04-03T10:01:36;0.19;118.99
64032;DHT22;50278;47.796;11.968;2023-04-03T10:06:34;5.05;118.99
64032;DHT22;50278;47.796;11.968;2023-04-03T10:09:29;5.33;118.99
64032;DHT22;50278;47.796;11.968;2023-04-03T10:12:09;5.22;118.99
64032;DHT22;50278;47.796;11.968;2023-04-03T10:14:39;5.27;118.99
64032;DHT22;50278;47.796;11.968;2023-04-03T10:22:44;5.41;118.99
64032;DHT22;50278;47.796;11.968;2023-04-03T10:28:00;5.24;118.99
64032;DHT22;50278;47.796;11.968;2023-04-03T10:33:01;3.94;118.99
64032;DHT22;50278;47.796;11.968;2023-04-03T10:41:30;1.97;118.99
64032;DHT22;50278;47.796;11.968;2023-04-03T10:50:00;0.63;118.99
64032;DHT22;50278;47.796;11.968;2023-04-03T10:52:37;4.48;118.99
64032;DHT22;50278;47.796;11.968;2023-04-03T10:57:57;4.51;118.99
64032;DHT22;50278;47.796;11.968;2023-04-03T11:00:35;4.66;118.99
64032;DHT22;50278;47.796;11.968;2023-04-03T11:03:11;2.32;118.99
64032;DHT22;50278;47.796;11.968;2023-04-03T11:05:44;4.67;118.99
64032;DHT22;50278;47.796;11.968;2023-04-03T11:08:32;0.96;118.99
64032;DHT22;50278;47.796;11.968;2023-04-03T11:11:11;0.73;118.99
64032;DHT22;50278;47.796;11.968;2023-04-03T11:14:05;1.05;118.99
64032;DHT22;50278;47.796;11.968;2023-04-03T11:16:41;1.08;118.99
64032;DHT22;50278;47.796;11.968;2023-04-03T11:19:18;0.39;118.99
64032;DHT22;50278;47.796;11.968;2023-04-03T11:22:26;0.62;118.99
64032;DHT22;50278;47.796;11.968;2023-04-03T11:27:37;0.69;118.99
64032;DHT22;50278;47.796;11.968;2023-04-03T11:30:07;0.20;118.99
64032;DHT22;50278;47.796;11.968;2023-04-03T11:35:42;-0.09;118.99
64032;DHT22;50278;47.796;11.968;2023-04-03T11:38:18;0.22;118.99
64032;DHT22;50278;47.796;11.968;2023-04-03T11:40:45;-0.12;118.99
64032;DHT22;50278;47.796;11.968;2023-04-03T11:43:31;-0.31;118.99
64032;DHT22;50278;47.796;11.968;2023-04-03T11:53:43;-1.11;118.99
64032;DHT22;50278;47.796;11.968;2023-04-03T12:04:16;-0.46;118.99
64032;DHT22;50278;47.796;11.968;2023-04-03T12:06:50;-0.95;118.99
64032;DHT22;50278;47.796;11.968;2023-04-03T12:09:35;-0.84;118.99
64032;DHT22;50278;47.796;11.968;2023-04-03T12:14:55;0.60;118.99
64032;DHT22;50278;47.796;11.968;2023-04-03T12:17:37;0.80;118.99
64032;DHT22;50278;47.796;11.968;2023-04-03T12:23:22;-0.80;118.99
64032;DHT22;50278;47.796;11.968;2023-04-03T12:25:50;0.02;118.99
64032;DHT22;50278;47.796;11.968;2023-04-03T12:28:16;1.68;118.99
64032;DHT22;50278;47.796;11.968;2023-04-03T12:30:42;0.66;118.99
64032;DHT22;50278;47.796;11.968;2023-04-03T12:33:23;2.78;118.99
64032;DHT22;50278;47.796;11.968;2023-04-03T12:36:21;1.82;118.99
64032;DHT22;50278;47.796;11.968;2023-04-03T12:42:11;3.24;118.99
64032;DHT22;50278;47.796;11.968;2023-04-03T12:44:59;3.78;118.99
64032;DHT22;50278;47.796;11.968;2023-04-03T12:47:31;3.70;118.99
64032;DHT22;50278;47.796;11.968;2023-04-03T12:49:59;3.48;118.99
64032;DHT22;50278;47.796;11.968;2023-04-03T12:52:37;3.30;118.99
64032;DHT22;50278;47.796;11.968;2023-04-03T12:55:08;2.57;118.99
64032;DHT22;50278;47.796;11.968;2023-04-03T12:57:38;2.10;118.99
64032;DHT22;50278;47.796;11.968;2023-04-03T13:00:27;2.17;118.99
64032;DHT22;50278;47.796;11.968;2023-04-03T13:02:53;1.16;118.99
64032;DHT22;50278;47.796;11.968;2023-04-03T13:05:19;1.14;118.99
64032;DHT22;50278;47.796;11.968;2023-04-03T13:08:03;1.17;118.99
64032;DHT22;50278;47.796;11.968;2023-04-03T13:10:31;1.41;118.99
64032;DHT22;50278;47.796;11.968;2023-04-03T13:13:08;0.74;118.99
64032;DHT22;50278;47.796;11.968;2023-04-03T13:15:47;0.69;118.99
64032;DHT22;50278;47.796;11.968;2023-04-03T13:18:27;0.50;118.99
64032;DHT22;50278;47.796;11.968;2023-04-03T13:20:58;0.25;118.99
64032;DHT22;50278;47.796;11.968;2023-04-03T13:23:26;0.02;118.99
64032;DHT22;50278;47.796;11.968;2023-04-03T13:25:52;-0.09;118.99
64032;DHT22;50278;47.796;11.968;2023-04-03T13:28:21;-0.16;118.99
64032;DHT22;50278;47.796;11.968;2023-04-03T13:31:17;0.21;118.99
64032;DHT22;50278;47.796;11.968;2023-04-03T13:39:22;-0.24;118.99
64032;DHT22;50278;47.796;11.968;2023-04-03T13:41:52;-0.24;118.99
64032;DHT22;50278;47.796;11.968;2023-04-03T13:47:20;-0.47;118.99
64032;DHT22;50278;47.796;11.968;2023-04-03T13:50:18;-0.15;118.99
64032;DHT22;50278;47.796;11.968;2023-04-03T13:52:55;-0.37;118.99
64032;DHT22;50278;47.796;11.968;2023-04-03T13:55:28;-0.25;118.99
64032;DHT22;50278;47.796;11.968;2023-04-03T13:58:21;-0.55;118.99
64032;DHT22;50278;47.796;11.968;2023-04-03T14:03:59;-0.20;118.99
64032;DHT22;50278;47.796;11.968;2023-04-03T14:06:26;-0.22;118.99
64032;DHT22;50278;47.796;11.968;2023-04-03T14:08:52;-0.07;118.99
64032;DHT22;50278;47.796;11.968;2023-04-03T14:11:24;-0.22;118.99
64032;DHT22;50278;47.796;11.968;2023-04-03T14:13:52;-0.43;118.99
64032;DHT22;50278;47.796;11.968;2023-04-03T14:16:21;-0.28;118.99
64032;DHT22;50278;47.796;11.968;2023-04-03T14:18:48;-0.25;118.99
64032;DHT22;50278;47.796;11.968;2023-04-03T14:21:17;-0.41;118.99
64032;DHT22;50278;47.796;11.968;2023-04-03T14:23:43;-0.17;118.99
64032;DHT22;50278;47.796;11.968;2023-04-03T14:26:16;-0.44;118.99
64032;DHT22;50278;47.796;11.968;2023-04-03T14:28:44;-0.45;118.99
64032;DHT22;50278;47.796;11.968;2023-04-03T14:31:12;0.23;118.99
64032;DHT22;50278;47.796;11.968;2023-04-03T14:33:37;0.34;118.99
64032;DHT22;50278;47.796;11.968;2023-04-03T14:36:18;0.10;118.99
64032;DHT22;50278;47.796;11.968;2023-04-03T14:38:45;1.55;118.99
64032;DHT22;50278;47.796;11.968;2023-04-03T14:41:13;2.11;118.99
64032;DHT22;50278;47.796;11.968;2023-04-03T14:43:38;3.61;118.99
64032;DHT22;50278;47.796;11.968;2023-04-03T14:46:05;4.24;118.99
64032;DHT22;50278;47.796;11.968;2023-04-03T14:48:31;4.51;118.99
64032;DHT22;50278;47.796;11.968;2023-04-03T14:50:56;4.83;118.99
64032;DHT22;50278;47.796;11.968;2023-04-03T14:53:22;4.05;118.99
64032;DHT22;50278;47.796;11.968;2023-04-03T14:55:50;0.99;118.99
64032;DHT22;50278;47.796;11.968;2023-04-03T14:58:18;0.95;118.99
64032;DHT22;50278;47.796;11.968;2023-04-03T15:00:47;1.01;118.99
64032;DHT22;50278;47.796;11.968;2023-04-03T15:03:28;2.57;118.99
64032;DHT22;50278;47.796;11.968;2023-04-03T15:05:54;0.66;118.99
64032;DHT22;50278;47.796;11.968;2023-04-03T15:08:25;1.38;118.99
64032;DHT22;50278;47.796;11.968;2023-04-03T15:10:51;1.41;118.99
64032;DHT22;50278;47.796;11.968;2023-04-03T15:13:21;0.74;118.99
64032;DHT22;50278;47.796;11.968;2023-04-03T15:15:46;1.17;118.99
64032;DHT22;50278;47.796;11.968;2023-04-03T15:18:17;0.87;118.99
64032;DHT22;50278;47.796;11.968;2023-04-03T15:20:44;0.86;118.99
64032;DHT22;50278;47.796;11.968;2023-04-03T15:23:12;2.30;118.99
64032;DHT22;50278;47.796;11.968;2023-04-03T15:25:48;2.49;118.99
64032;DHT22;50278;47.796;11.968;2023-04-03T15:30:44;1.22;118.99
64032;DHT22;50278;47.796;11.968;2023-04-03T15:33:10;0.51;118.99
64032;DHT22;50278;47.796;11.968;2023-04-03T15:35:35;0.20;118.99
64032;DHT22;50278;47.796;11.968;2023-04-03T15:38:01;0.27;118.99
64032;DHT22;50278;47.796;11.968;2023-04-03T15:40:26;1.13;118.99
64032;DHT22;50278;47.796;11.968;2023-04-03T15:42:52;1.40;118.99
64032;DHT22;50278;47.796;11.968;2023-04-03T15:45:18;0.81;118.99
64032;DHT22;50278;47.796;11.968;2023-04-03T15:47:43;-0.37;118.99
64032;DHT22;50278;47.796;11.968;2023-04-03T15:50:09;-0.60;118.99
64032;DHT22;50278;47.796;11.968;2023-04-03T15:52:35;-0.73;118.99
64032;DHT22;50278;47.796;11.968;2023-04-03T15:55:00;-1.02;118.99
64032;DHT22;50278;47.796;11.968;2023-04-03T15:57:26;-1.47;118.99
64032;DHT22;50278;47.796;11.968;2023-04-03T15:59:52;-1.59;118.99
64032;DHT22;50278;47.796;11.968;2023-04-03T16:02:18;-1.60;118.99
64032;DHT22;50278;47.796;11.968;2023-04-03T16:04:44;-1.55;118.99
64032;DHT22;50278;47.796;11.968;2023-04-03T16:07:09;-1.62;118.99
64032;DHT22;50278;47.796;11.968;2023-04-03T16:09:35;-1.47;118.99
64032;DHT22;50278;47.796;11.968;2023-04-03T16:12:01;-1.52;118.99
64032;DHT22;50278;47.796;11.968;2023-04-03T16:14:27;-1.94;118.99
64032;DHT22;50278;47.796;11.968;2023-04-03T16:16:55;-1.87;118.99
64032;DHT22;50278;47.796;11.968;2023-04-03T16:19:21;-2.03;118.99
64032;DHT22;50278;47.796;11.968;2023-04-03T16:21:47;-1.89;118.99
64032;DHT22;50278;47.796;11.968;2023-04-03T16:24:12;-1.95;118.99
64032;DHT22;50278;47.796;11.968;2023-04-03T16:26:38;-2.05;118.99
64032;DHT22;50278;47.796;11.968;2023-04-03T16:29:03;-2.03;118.99
64032;DHT22;50278;47.796;11.968;2023-04-03T16:31:31;-2.17;118.99
64032;DHT22;50278;47.796;11.968;2023-04-03T16:33:57;-1.90;118.99
64032;DHT22;50278;47.796;11.968;2023-04-03T16:36:24;-2.02;118.99
64032;DHT22;50278;47.796;11.968;2023-04-03T16:38:49;-2.14;118.99
64032;DHT22;50278;47.796;11.968;2023-04-03T16:41:15;-2.17;118.99
64032;DHT22;50278;47.796;11.968;2023-04-03T16:43:40;-2.21;118.99
64032;DHT22;50278;47.796;11.968;2023-04-03T16:46:06;-2.23;118.99
64032;DHT22;50278;47.796;11.968;2023-04-03T16:48:31;-2.24;118.99
64032;DHT22;50278;47.796;11.968;2023-04-03T16:50:57;-1.88;118.99
64032;DHT22;50278;47.796;11.968;2023-04-03T16:53:24;-2.20;118.99
64032;DHT22;50278;47.796;11.968;2023-04-03T16:55:50;-2.08;118.99
64032;DHT22;50278;47.796;11.968;2023-04-03T16:58:15;-2.24;118.99
64032;DHT22;50278;47.796;11.968;2023-04-03T17:00:41;-1.00;118.99
64032;DHT22;50278;47.796;11.968;2023-04-03T17:03:07;-1.48;118.99
64032;DHT22;50278;47.796;11.968;2023-04-03T17:05:33;-1.73;118.99
64032;DHT22;50278;47.796;11.968;2023-04-03T17:07:59;-1.86;118.99